createdAt,value
2019-02-19T20:48:42.147Z,12.00
2019-02-19T20:51:15.546Z,14.20
2019-02-19T20:53:46.398Z,13.60
2019-02-19T20:56:16.468Z,13.60
2019-02-19T20:58:46.641Z,13.40
2019-02-19T21:01:16.886Z,13.07
2019-02-19T21:03:47.162Z,13.30
2019-02-19T21:06:17.163Z,13.17
2019-02-19T21:08:47.262Z,12.87
2019-02-19T21:11:17.440Z,12.40
2019-02-19T21:13:47.747Z,13.17
2019-02-19T21:16:18.173Z,12.83
2019-02-19T21:18:48.606Z,13.53
2019-02-19T21:21:18.784Z,13.00
2019-02-19T21:23:49.249Z,12.43
2019-02-19T21:26:19.445Z,10.90
2019-02-19T21:28:49.465Z,12.57
2019-02-19T21:31:19.586Z,12.60
2019-02-19T21:33:50.241Z,12.70
2019-02-19T21:36:20.469Z,12.43
2019-02-19T21:38:52.476Z,14.50
2019-02-19T21:41:23.923Z,12.67
2019-02-19T21:43:53.925Z,13.00
2019-02-19T21:46:24.140Z,14.03
2019-02-19T21:48:54.244Z,13.90
2019-02-19T21:51:25.117Z,15.00
2019-02-19T21:53:55.321Z,12.50
2019-02-19T21:56:25.639Z,14.13
2019-02-19T21:58:56.042Z,15.20
2019-02-19T22:01:26.087Z,15.20
2019-02-19T22:03:56.685Z,15.10
2019-02-19T22:06:27.015Z,15.00
2019-02-19T22:08:57.055Z,15.30
2019-02-19T22:11:27.489Z,15.30
2019-02-19T22:13:57.812Z,15.80
2019-02-19T22:16:27.816Z,14.80
2019-02-19T22:18:57.865Z,14.97
2019-02-19T22:21:33.205Z,15.07
2019-02-19T22:24:03.372Z,13.97
2019-02-19T22:26:33.649Z,15.63
2019-02-19T22:29:04.293Z,15.30
2019-02-19T22:31:34.313Z,15.70
2019-02-19T22:34:04.301Z,14.60
2019-02-19T22:36:34.314Z,15.70
2019-02-19T22:39:06.511Z,15.70
2019-02-19T22:41:36.592Z,15.90
2019-02-19T22:44:06.568Z,15.53
2019-02-19T22:46:36.545Z,14.90
2019-02-19T22:49:06.585Z,15.83
2019-02-19T22:51:36.693Z,16.37
2019-02-19T22:54:32.012Z,15.43
2019-02-19T22:57:02.145Z,15.00
2019-02-19T22:59:32.136Z,15.67
2019-02-19T23:02:22.537Z,17.80
2019-02-19T23:04:52.910Z,15.30
2019-02-19T23:07:22.980Z,14.60
2019-02-19T23:09:53.042Z,15.80
2019-02-19T23:12:23.102Z,15.47
2019-02-19T23:14:53.661Z,16.20
2019-02-19T23:17:23.664Z,14.00
2019-02-19T23:19:53.764Z,13.60
2019-02-19T23:22:23.998Z,13.03
2019-02-19T23:24:54.045Z,15.13
2019-02-19T23:27:24.512Z,16.37
2019-02-19T23:29:54.600Z,15.40
2019-02-19T23:32:24.629Z,15.03
2019-02-19T23:35:12.433Z,14.73
2019-02-19T23:37:42.589Z,13.93
2019-02-19T23:40:12.015Z,14.80
2019-02-19T23:42:42.108Z,17.23
2019-02-19T23:45:12.405Z,13.40
2019-02-19T23:47:43.183Z,14.00
2019-02-19T23:50:13.549Z,11.73
2019-02-19T23:52:44.005Z,13.50
2019-02-19T23:55:14.029Z,12.40
2019-02-19T23:57:43.989Z,12.77
